Time;durP1;ratioP1;P1;durP2;ratioP2;P2;SDS_P1;SDS_P2;PMS_P1;PMS_P2;Temp;Humidity;BMP_temperature;BMP_pressure;BME280_temperature;BME280_humidity;BME280_pressure;Samples;Min_cycle;Max_cycle;Signal;HPM_P1;HPM_P2
2021/05/30 00:01:33;;;;;;;12.93;8.63;;;;;;;13.69;55.55;101039.41;5016486;28;20400;-81
2021/05/30 00:04:00;;;;;;;10.82;8.13;;;;;;;13.65;55.94;101040.50;5015856;28;20056;-82
2021/05/30 00:06:29;;;;;;;10.95;7.95;;;;;;;13.61;56.13;101038.94;5015769;28;20148;-82
2021/05/30 00:08:56;;;;;;;11.57;8.50;;;;;;;13.57;55.92;101042.66;5015740;28;20096;-81
2021/05/30 00:11:22;;;;;;;11.07;8.88;;;;;;;13.53;55.83;101034.03;5015773;28;20045;-83
2021/05/30 00:14:09;;;;;;;12.10;8.15;;;;;;;13.50;56.08;101044.75;5014973;28;20202;-83
2021/05/30 00:16:36;;;;;;;12.18;8.90;;;;;;;13.45;55.93;101041.44;5010897;28;20119;-84
2021/05/30 00:19:04;;;;;;;13.32;9.35;;;;;;;13.41;56.12;101040.72;5015279;28;20050;-84
2021/05/30 00:21:31;;;;;;;13.88;9.23;;;;;;;13.36;56.10;101046.25;5015007;28;20053;-84
2021/05/30 00:23:58;;;;;;;15.95;8.05;;;;;;;13.33;55.98;101041.09;5015339;28;20092;-84
2021/05/30 00:26:25;;;;;;;14.02;8.23;;;;;;;13.27;56.19;101036.13;5014350;28;20499;-84
2021/05/30 00:28:52;;;;;;;13.52;9.68;;;;;;;13.23;56.24;101035.38;5015581;28;20415;-86
2021/05/30 00:31:19;;;;;;;16.40;9.18;;;;;;;13.19;56.53;101040.91;5014776;28;20100;-85
2021/05/30 00:33:46;;;;;;;10.23;7.97;;;;;;;13.13;56.39;101037.59;5014043;28;20045;-85
2021/05/30 00:36:13;;;;;;;10.98;8.35;;;;;;;13.09;56.29;101037.84;5014799;28;20053;-83
2021/05/30 00:38:39;;;;;;;13.07;8.35;;;;;;;13.05;56.38;101039.78;5014238;28;20057;-84
2021/05/30 00:41:06;;;;;;;14.85;9.52;;;;;;;13.01;56.52;101043.50;5015524;28;20054;-86
2021/05/30 00:43:48;;;;;;;13.77;9.48;;;;;;;12.96;57.21;101042.81;5014932;28;20487;-87
2021/05/30 00:46:15;;;;;;;17.90;9.75;;;;;;;12.97;56.47;101041.91;5015445;28;20050;-86
2021/05/30 00:48:42;;;;;;;10.45;7.95;;;;;;;12.95;56.55;101038.47;5007913;28;20053;-87
2021/05/30 00:51:09;;;;;;;14.75;9.05;;;;;;;12.91;56.54;101045.69;4994917;28;20054;-87
2021/05/30 00:53:37;;;;;;;15.20;10.10;;;;;;;12.89;56.54;101034.31;4994464;28;20069;-86
2021/05/30 00:56:06;;;;;;;12.55;9.40;;;;;;;12.86;56.95;101037.97;4994839;28;20050;-83
2021/05/30 00:58:33;;;;;;;12.80;9.10;;;;;;;12.85;56.73;101045.97;4995677;28;20062;-85
2021/05/30 01:01:00;;;;;;;17.10;9.77;;;;;;;12.82;56.73;101049.59;4995542;28;20050;-84
2021/05/30 01:03:27;;;;;;;12.98;9.40;;;;;;;12.81;56.65;101053.19;4992946;28;20484;-84
2021/05/30 01:05:54;;;;;;;12.80;9.40;;;;;;;12.79;56.78;101038.31;4995280;28;20515;-84
2021/05/30 01:08:26;;;;;;;13.30;9.60;;;;;;;12.74;56.68;101047.31;4994397;28;20514;-85
2021/05/30 01:10:56;;;;;;;14.60;10.05;;;;;;;12.69;57.08;101045.81;4993874;28;20071;-83
2021/05/30 01:13:24;;;;;;;15.52;10.20;;;;;;;12.64;56.85;101046.03;4995948;28;20096;-84
2021/05/30 01:15:51;;;;;;;16.35;10.07;;;;;;;12.60;57.02;101034.72;5014236;28;20054;-85
2021/05/30 01:18:24;;;;;;;15.85;10.07;;;;;;;12.55;57.85;101047.28;5014981;28;20058;-84
2021/05/30 01:20:53;;;;;;;15.80;10.30;;;;;;;12.53;57.28;101038.59;5014528;28;20053;-85
2021/05/30 01:23:21;;;;;;;14.23;10.32;;;;;;;12.51;57.24;101040.44;5013463;28;20100;-82
2021/05/30 01:25:48;;;;;;;14.75;10.15;;;;;;;12.47;57.18;101041.50;5014369;28;20049;-85
2021/05/30 01:28:16;;;;;;;17.65;9.98;;;;;;;12.41;57.38;101044.41;5014882;28;20100;-85
2021/05/30 01:30:44;;;;;;;14.15;10.25;;;;;;;12.35;57.02;101043.75;5014239;28;20466;-87
2021/05/30 01:33:10;;;;;;;16.63;11.18;;;;;;;12.28;57.25;101029.09;5013513;28;20046;-85
2021/05/30 01:35:37;;;;;;;13.88;10.18;;;;;;;12.21;57.21;101032.91;5011978;28;20058;-85
2021/05/30 01:38:04;;;;;;;14.73;9.75;;;;;;;12.15;57.58;101038.47;5012640;28;20054;-87
2021/05/30 01:40:31;;;;;;;15.38;10.30;;;;;;;12.08;57.55;101043.16;5013583;28;20060;-87
2021/05/30 01:42:58;;;;;;;16.08;10.48;;;;;;;12.03;57.59;101040.69;5014412;28;20472;-86
2021/05/30 01:45:30;;;;;;;16.77;9.77;;;;;;;12.00;57.96;101043.44;5013030;28;20046;-85
2021/05/30 01:47:58;;;;;;;16.13;10.10;;;;;;;11.96;57.60;101036.59;5011936;28;20053;-83
2021/05/30 01:50:27;;;;;;;13.35;9.98;;;;;;;11.91;58.00;101042.06;5013408;28;20057;-85
2021/05/30 01:52:55;;;;;;;13.80;9.70;;;;;;;11.89;57.83;101038.63;5013141;28;20045;-85
2021/05/30 01:55:25;;;;;;;15.02;9.90;;;;;;;11.86;58.01;101036.13;5014410;28;20092;-85
2021/05/30 01:57:54;;;;;;;16.15;10.23;;;;;;;11.81;58.16;101041.56;5014452;28;20100;-86
2021/05/30 02:00:22;;;;;;;18.13;10.20;;;;;;;11.80;57.99;101039.88;5013757;28;20050;-86
2021/05/30 02:02:54;;;;;;;13.48;9.82;;;;;;;11.75;58.61;101046.25;5014478;28;20053;-84
2021/05/30 02:05:21;;;;;;;19.13;9.63;;;;;;;11.72;57.95;101048.09;5013754;28;20042;-85
2021/05/30 02:07:49;;;;;;;16.10;10.10;;;;;;;11.68;58.09;101046.53;5013632;28;20050;-85
2021/05/30 02:10:17;;;;;;;14.85;9.23;;;;;;;11.65;58.28;101048.41;5013877;28;20104;-83
2021/05/30 02:12:50;;;;;;;14.20;9.60;;;;;;;11.61;58.72;101045.03;4997442;28;20050;-84
2021/05/30 02:15:18;;;;;;;14.05;9.48;;;;;;;11.62;58.51;101044.13;4993792;28;20046;-83
2021/05/30 02:17:45;;;;;;;15.15;9.55;;;;;;;11.60;58.51;101041.53;4991811;28;20061;-83
2021/05/30 02:20:15;;;;;;;14.13;8.98;;;;;;;11.60;58.33;101044.16;4992643;28;20455;-85
2021/05/30 02:22:42;;;;;;;13.15;9.02;;;;;;;11.59;58.26;101044.25;4993348;28;20054;-83
2021/05/30 02:25:10;;;;;;;15.52;9.77;;;;;;;11.57;58.52;101041.69;4993695;28;20057;-83
2021/05/30 02:27:38;;;;;;;16.33;10.05;;;;;;;11.56;58.37;101039.94;4993514;28;20050;-83
2021/05/30 02:30:05;;;;;;;15.38;9.15;;;;;;;11.55;58.22;101030.31;4993661;28;20538;-86
2021/05/30 02:32:32;;;;;;;14.32;9.32;;;;;;;11.54;58.46;101039.16;4995669;28;20141;-83
2021/05/30 02:34:58;;;;;;;15.20;9.30;;;;;;;11.52;58.38;101033.09;4993396;28;20065;-84
2021/05/30 02:37:25;;;;;;;15.63;9.23;;;;;;;11.51;58.17;101034.00;4993655;28;20104;-84
2021/05/30 02:39:51;;;;;;;13.55;10.00;;;;;;;11.46;58.24;101028.94;4994260;28;20046;-84
2021/05/30 02:42:18;;;;;;;14.02;10.18;;;;;;;11.44;58.41;101032.56;4994050;28;20050;-84
2021/05/30 02:44:44;;;;;;;14.65;9.60;;;;;;;11.39;58.48;101024.81;4993999;28;20113;-85
2021/05/30 02:47:11;;;;;;;13.63;9.70;;;;;;;11.37;58.47;101023.16;4998844;28;20451;-86
2021/05/30 02:49:38;;;;;;;16.13;9.68;;;;;;;11.34;58.69;101026.78;4996789;28;20052;-85
2021/05/30 02:52:05;;;;;;;17.55;10.18;;;;;;;11.32;58.67;101023.31;4995462;28;20125;-87
2021/05/30 02:54:32;;;;;;;16.67;10.57;;;;;;;11.31;58.90;101024.25;4996507;28;20472;-86
2021/05/30 02:56:59;;;;;;;14.35;9.93;;;;;;;11.30;58.73;101030.47;4994980;28;20051;-87
2021/05/30 02:59:25;;;;;;;15.40;9.52;;;;;;;11.29;58.98;101028.75;4995607;28;20073;-84
2021/05/30 03:01:52;;;;;;;15.18;10.15;;;;;;;11.27;58.86;101028.81;4996501;28;20050;-83
2021/05/30 03:04:19;;;;;;;16.63;10.43;;;;;;;11.27;58.81;101034.06;4997450;28;20050;-83
2021/05/30 03:06:46;;;;;;;16.08;10.25;;;;;;;11.27;58.87;101033.19;4997550;28;20396;-84
2021/05/30 03:09:12;;;;;;;19.88;10.38;;;;;;;11.25;59.20;101025.34;4997337;28;20102;-84
2021/05/30 03:11:39;;;;;;;17.65;10.20;;;;;;;11.26;59.12;101029.72;4998356;28;20054;-84
2021/05/30 03:14:05;;;;;;;20.92;11.18;;;;;;;11.25;59.24;101033.25;4998516;28;20412;-83
2021/05/30 03:16:32;;;;;;;16.05;10.07;;;;;;;11.24;59.04;101028.91;4998441;28;20093;-85
2021/05/30 03:18:59;;;;;;;18.70;10.73;;;;;;;11.24;59.15;101031.53;4996622;28;20061;-85
2021/05/30 03:21:26;;;;;;;15.45;10.27;;;;;;;11.24;59.31;101033.31;4998625;28;20054;-84
2021/05/30 03:23:52;;;;;;;15.55;9.63;;;;;;;11.24;59.18;101035.94;4996063;28;20046;-85
2021/05/30 03:26:19;;;;;;;17.77;9.82;;;;;;;11.25;59.43;101035.06;4997312;28;20389;-85
2021/05/30 03:28:45;;;;;;;16.35;9.85;;;;;;;11.24;59.29;101036.81;5000689;28;20046;-85
2021/05/30 03:31:13;;;;;;;16.48;10.20;;;;;;;11.26;58.98;101039.41;5016223;28;20050;-86
2021/05/30 03:33:40;;;;;;;13.90;10.65;;;;;;;11.27;59.32;101046.38;5017415;28;20511;-86
2021/05/30 03:36:11;;;;;;;16.98;10.32;;;;;;;11.27;59.37;101046.38;5016327;28;20057;-86
2021/05/30 03:38:38;;;;;;;16.05;10.48;;;;;;;11.27;59.37;101044.63;5015786;28;20458;-87
2021/05/30 03:41:06;;;;;;;15.32;9.45;;;;;;;11.30;59.39;101043.63;5015857;28;20050;-86
2021/05/30 03:43:34;;;;;;;18.52;10.10;;;;;;;11.30;59.38;101043.63;5016583;28;20046;-85
2021/05/30 03:46:00;;;;;;;17.73;10.45;;;;;;;11.31;59.38;101045.34;5015989;28;20053;-86
2021/05/30 03:48:27;;;;;;;16.33;9.80;;;;;;;11.30;59.60;101046.28;5016047;28;20100;-86
2021/05/30 03:50:54;;;;;;;15.55;11.07;;;;;;;11.31;59.56;101045.34;5017148;28;20205;-83
2021/05/30 03:53:21;;;;;;;17.88;10.38;;;;;;;11.30;59.57;101049.78;5015545;28;20046;-85
2021/05/30 03:55:48;;;;;;;16.55;10.90;;;;;;;11.30;59.68;101048.91;5014005;28;20050;-84
2021/05/30 03:58:16;;;;;;;18.30;10.55;;;;;;;11.29;59.55;101045.41;5015911;28;20057;-85
2021/05/30 04:00:43;;;;;;;18.38;10.95;;;;;;;11.27;60.01;101052.53;5014145;28;20163;-83
2021/05/30 04:03:10;;;;;;;15.27;10.55;;;;;;;11.26;59.80;101053.44;5015401;28;20050;-83
2021/05/30 04:05:36;;;;;;;17.63;11.07;;;;;;;11.25;59.95;101053.50;5013521;28;20111;-83
2021/05/30 04:08:04;;;;;;;18.80;10.70;;;;;;;11.25;60.04;101042.97;5015052;28;20499;-84
2021/05/30 04:10:30;;;;;;;18.58;10.80;;;;;;;11.24;59.97;101046.50;5014210;28;20104;-83
2021/05/30 04:12:57;;;;;;;21.20;11.57;;;;;;;11.24;60.10;101035.94;5016154;28;20514;-84
2021/05/30 04:15:24;;;;;;;17.63;11.48;;;;;;;11.24;60.37;101047.38;5014656;28;20115;-81
2021/05/30 04:17:50;;;;;;;18.83;12.23;;;;;;;11.26;60.45;101036.75;5015523;28;20503;-86
2021/05/30 04:20:20;;;;;;;22.30;11.88;;;;;;;11.29;60.55;101037.50;5017220;28;20507;-84
2021/05/30 04:22:47;;;;;;;20.42;11.95;;;;;;;11.32;60.45;101044.41;5014661;28;20488;-85
2021/05/30 04:25:15;;;;;;;20.52;11.77;;;;;;;11.35;60.70;101044.31;5014709;28;20049;-84
2021/05/30 04:27:41;;;;;;;18.38;11.35;;;;;;;11.39;60.89;101050.31;5016955;28;20100;-84
2021/05/30 04:30:11;;;;;;;20.20;11.38;;;;;;;11.44;61.02;101043.09;5017420;28;20054;-84
2021/05/30 04:32:38;;;;;;;15.45;11.05;;;;;;;11.47;60.71;101049.09;5004683;28;20047;-86
2021/05/30 04:35:05;;;;;;;18.77;11.90;;;;;;;11.52;60.76;101048.94;4994810;28;20547;-86
2021/05/30 04:37:32;;;;;;;17.25;11.85;;;;;;;11.55;60.76;101047.94;4994678;28;20046;-87
2021/05/30 04:39:59;;;;;;;15.57;10.77;;;;;;;11.58;60.86;101051.31;4995099;28;20050;-85
2021/05/30 04:42:27;;;;;;;15.93;11.43;;;;;;;11.61;60.75;101047.69;4995620;28;20531;-86
2021/05/30 04:44:54;;;;;;;18.67;11.60;;;;;;;11.63;60.88;101047.63;4995793;28;20105;-83
2021/05/30 04:47:20;;;;;;;19.15;11.30;;;;;;;11.67;61.00;101055.31;4996660;28;20058;-85
2021/05/30 04:49:47;;;;;;;17.67;11.13;;;;;;;11.69;61.10;101053.50;4995065;28;20058;-84
2021/05/30 04:52:14;;;;;;;16.95;10.52;;;;;;;11.74;61.22;101058.59;4996518;28;20050;-85
2021/05/30 04:54:40;;;;;;;19.83;11.73;;;;;;;11.79;61.25;101063.66;4994526;28;20054;-84
2021/05/30 04:57:07;;;;;;;18.73;12.10;;;;;;;11.83;61.21;101068.78;4995119;28;20096;-84
2021/05/30 04:59:33;;;;;;;18.55;12.13;;;;;;;11.89;61.44;101065.00;4995057;28;20058;-84
2021/05/30 05:02:00;;;;;;;17.38;11.35;;;;;;;11.94;61.44;101068.31;4993402;28;20108;-85
2021/05/30 05:04:27;;;;;;;19.77;12.02;;;;;;;12.01;61.31;101065.41;4995635;28;20104;-85
2021/05/30 05:06:54;;;;;;;19.58;11.05;;;;;;;12.06;61.12;101066.97;4994436;28;20487;-85
2021/05/30 05:09:20;;;;;;;19.00;11.82;;;;;;;12.12;61.25;101063.22;4992422;28;20496;-86
2021/05/30 05:11:47;;;;;;;17.95;12.80;;;;;;;12.17;61.17;101063.88;4994575;28;20062;-86
2021/05/30 05:14:14;;;;;;;21.38;12.55;;;;;;;12.22;61.17;101067.19;4996126;28;20046;-84
2021/05/30 05:16:40;;;;;;;19.15;12.57;;;;;;;12.28;61.25;101066.06;4994277;28;20054;-84
2021/05/30 05:19:07;;;;;;;18.55;12.50;;;;;;;12.33;61.16;101065.84;4994531;28;20062;-84
2021/05/30 05:21:33;;;;;;;19.80;13.25;;;;;;;12.37;61.23;101070.94;4993331;28;20514;-85
2021/05/30 05:24:00;;;;;;;21.25;13.07;;;;;;;12.43;60.95;101061.03;4994502;28;20486;-87
2021/05/30 05:26:27;;;;;;;22.23;13.85;;;;;;;12.46;61.14;101053.84;4995445;28;20137;-87
2021/05/30 05:28:54;;;;;;;20.63;13.65;;;;;;;12.50;61.10;101058.06;4993803;28;20058;-88
2021/05/30 05:31:21;;;;;;;21.85;13.90;;;;;;;12.55;60.99;101057.84;4994341;28;20105;-87
2021/05/30 05:33:48;;;;;;;18.80;12.98;;;;;;;12.59;61.35;101055.91;4994112;28;20050;-85
2021/05/30 05:36:20;;;;;;;18.48;11.93;;;;;;;12.63;61.21;101054.84;4993409;28;20082;-86
2021/05/30 05:38:46;;;;;;;17.25;11.68;;;;;;;12.70;61.29;101056.31;4993736;28;20050;-83
2021/05/30 05:41:13;;;;;;;18.25;12.55;;;;;;;12.74;61.20;101051.72;4994568;28;20854;-84
2021/05/30 05:43:39;;;;;;;18.63;12.30;;;;;;;12.79;61.42;101048.91;4994611;28;20050;-84
2021/05/30 05:46:06;;;;;;;20.15;12.27;;;;;;;12.85;61.43;101054.75;4996061;28;20053;-84
2021/05/30 05:48:34;;;;;;;19.20;11.70;;;;;;;12.90;61.41;101050.13;4995625;28;20058;-84
2021/05/30 05:51:01;;;;;;;18.42;11.63;;;;;;;12.98;61.60;101054.19;4995296;28;20054;-84
2021/05/30 05:53:28;;;;;;;18.13;11.90;;;;;;;13.04;61.53;101051.25;4993928;28;20453;-84
2021/05/30 05:55:55;;;;;;;16.42;11.35;;;;;;;13.11;61.76;101054.47;4992584;28;20066;-83
2021/05/30 05:58:21;;;;;;;15.40;11.13;;;;;;;13.18;61.73;101055.91;4994141;28;20055;-84
2021/05/30 06:00:48;;;;;;;17.23;11.90;;;;;;;13.27;61.89;101054.63;4994681;28;20046;-84
2021/05/30 06:03:15;;;;;;;17.05;11.52;;;;;;;13.35;61.91;101056.91;4992269;28;20504;-85
2021/05/30 06:05:42;;;;;;;13.68;10.07;;;;;;;13.44;61.89;101056.44;4992456;28;20080;-85
2021/05/30 06:08:09;;;;;;;16.70;10.27;;;;;;;13.54;62.01;101062.19;4994056;28;20053;-86
2021/05/30 06:10:35;;;;;;;12.20;9.75;;;;;;;13.63;61.97;101061.75;4994401;28;20058;-84
2021/05/30 06:13:09;;;;;;;13.13;9.68;;;;;;;13.71;62.00;101058.72;4993981;28;20050;-84
2021/05/30 06:15:39;;;;;;;15.57;9.23;;;;;;;13.83;61.70;101061.69;4994532;28;20062;-85
2021/05/30 06:18:13;;;;;;;14.18;9.50;;;;;;;13.92;61.77;101055.94;4993029;28;20137;-84
2021/05/30 06:20:41;;;;;;;13.85;9.45;;;;;;;14.01;61.76;101063.41;4994378;28;20100;-84
2021/05/30 06:23:08;;;;;;;12.57;9.52;;;;;;;14.10;61.55;101066.53;4996584;28;20046;-86
2021/05/30 06:25:36;;;;;;;13.38;9.70;;;;;;;14.19;61.43;101071.34;4996417;28;20520;-84
2021/05/30 06:28:03;;;;;;;13.65;9.07;;;;;;;14.27;61.17;101065.66;4998890;28;20054;-85
2021/05/30 06:30:34;;;;;;;12.88;9.38;;;;;;;14.35;61.43;101063.47;4997925;28;20081;-85
2021/05/30 06:33:02;;;;;;;16.65;8.77;;;;;;;14.45;61.20;101063.84;4997347;28;20065;-83
2021/05/30 06:35:30;;;;;;;13.98;8.68;;;;;;;14.53;60.98;101066.94;4998106;28;20129;-83
2021/05/30 06:37:57;;;;;;;11.48;8.45;;;;;;;14.62;61.06;101065.63;4997673;28;20129;-84
2021/05/30 06:40:24;;;;;;;16.30;9.45;;;;;;;14.70;61.13;101074.00;4998009;28;20050;-83
2021/05/30 06:42:51;;;;;;;9.50;7.82;;;;;;;14.78;60.86;101068.34;5003731;28;20046;-83
2021/05/30 06:45:17;;;;;;;12.98;8.75;;;;;;;14.86;61.07;101073.22;5016420;28;20049;-84
2021/05/30 06:47:44;;;;;;;13.07;8.85;;;;;;;14.94;60.85;101071.00;5016249;28;20061;-84
2021/05/30 06:50:12;;;;;;;12.50;9.10;;;;;;;15.03;60.83;101064.31;5015995;28;20115;-83
2021/05/30 06:52:39;;;;;;;12.20;8.55;;;;;;;15.10;60.65;101065.72;5015091;28;20058;-84
2021/05/30 06:55:06;;;;;;;12.00;8.45;;;;;;;15.18;60.44;101067.09;5012990;28;20046;-84
2021/05/30 06:57:33;;;;;;;11.25;8.70;;;;;;;15.25;60.43;101065.78;4997150;28;20116;-84
2021/05/30 07:00:00;;;;;;;11.23;8.13;;;;;;;15.32;60.38;101061.88;4995704;28;20050;-86
2021/05/30 07:02:26;;;;;;;15.02;9.40;;;;;;;15.40;60.60;101072.03;4996879;28;20109;-84
2021/05/30 07:04:53;;;;;;;12.82;9.15;;;;;;;15.48;60.33;101071.63;4997312;28;20054;-86
2021/05/30 07:07:19;;;;;;;12.55;8.85;;;;;;;15.55;60.28;101074.78;4996540;28;20109;-84
2021/05/30 07:09:46;;;;;;;12.75;8.07;;;;;;;15.62;60.32;101065.50;5003020;28;20053;-83
2021/05/30 07:12:13;;;;;;;12.50;9.48;;;;;;;15.69;60.19;101069.53;5016108;28;20053;-85
2021/05/30 07:14:39;;;;;;;13.45;8.52;;;;;;;15.77;59.97;101075.25;5016269;28;20116;-85
2021/05/30 07:17:06;;;;;;;12.20;9.25;;;;;;;15.84;59.97;101069.56;5016569;28;20545;-87
2021/05/30 07:19:33;;;;;;;11.50;7.95;;;;;;;15.92;60.11;101063.84;5016712;28;20050;-86
2021/05/30 07:21:59;;;;;;;11.50;8.90;;;;;;;15.99;59.71;101068.72;5016552;28;20108;-85
2021/05/30 07:24:26;;;;;;;12.38;9.27;;;;;;;16.06;60.02;101068.34;5015549;28;20048;-83
2021/05/30 07:26:52;;;;;;;13.77;9.60;;;;;;;16.13;59.84;101075.00;5012529;28;20048;-83
2021/05/30 07:29:19;;;;;;;10.77;8.55;;;;;;;16.19;59.56;101066.69;5015166;28;20054;-83
2021/05/30 07:31:47;;;;;;;11.98;8.52;;;;;;;16.25;59.76;101068.97;5013866;28;20479;-83
2021/05/30 07:34:14;;;;;;;14.10;9.32;;;;;;;16.32;59.40;101065.94;5010077;28;20050;-84
2021/05/30 07:36:41;;;;;;;14.43;9.10;;;;;;;16.39;59.19;101064.63;4996550;28;20062;-83
2021/05/30 07:39:08;;;;;;;9.73;8.73;;;;;;;16.44;59.51;101065.19;4996693;28;20047;-84
2021/05/30 07:41:35;;;;;;;12.35;9.43;;;;;;;16.50;59.58;101067.50;4996350;28;20054;-84
2021/05/30 07:44:02;;;;;;;12.68;9.00;;;;;;;16.56;59.14;101071.56;5012463;28;20061;-84
2021/05/30 07:46:29;;;;;;;14.60;9.00;;;;;;;16.63;59.00;101067.56;5016278;28;20452;-85
2021/05/30 07:48:56;;;;;;;13.45;9.30;;;;;;;16.70;59.12;101068.06;5016512;28;20050;-86
2021/05/30 07:51:22;;;;;;;12.07;8.75;;;;;;;16.79;58.51;101071.97;5006530;28;20104;-83
2021/05/30 07:53:49;;;;;;;11.70;8.70;;;;;;;16.87;58.48;101068.81;4996313;28;20177;-84
2021/05/30 07:56:15;;;;;;;9.73;8.05;;;;;;;16.94;58.13;101065.66;4995933;28;20488;-85
2021/05/30 07:58:42;;;;;;;12.23;8.55;;;;;;;17.01;58.23;101071.44;5000117;28;20046;-85
2021/05/30 08:01:09;;;;;;;13.15;9.32;;;;;;;17.08;58.29;101066.63;5015418;28;20054;-84
2021/05/30 08:03:35;;;;;;;12.65;8.80;;;;;;;17.15;58.76;101059.09;5014142;28;20065;-84
2021/05/30 08:06:03;;;;;;;12.90;9.05;;;;;;;17.22;58.55;101068.41;5015624;28;20053;-85
2021/05/30 08:08:29;;;;;;;11.00;8.45;;;;;;;17.31;58.61;101074.97;5015567;28;20054;-85
2021/05/30 08:10:56;;;;;;;12.10;7.80;;;;;;;17.40;58.37;101071.69;5015630;28;20443;-86
2021/05/30 08:13:23;;;;;;;11.90;8.05;;;;;;;17.50;58.19;101068.44;5015160;28;20403;-86
2021/05/30 08:15:49;;;;;;;11.68;8.35;;;;;;;17.58;57.57;101063.47;5015241;28;20049;-84
2021/05/30 08:18:16;;;;;;;11.45;8.65;;;;;;;17.67;57.60;101067.31;5015519;28;20046;-85
2021/05/30 08:20:43;;;;;;;12.25;8.40;;;;;;;17.76;57.41;101060.53;5016108;28;20054;-84
2021/05/30 08:23:10;;;;;;;10.77;8.73;;;;;;;17.86;57.42;101066.09;5015644;28;20447;-84
2021/05/30 08:25:37;;;;;;;12.80;8.43;;;;;;;17.94;57.61;101069.09;5013574;28;20099;-84
2021/05/30 08:28:09;;;;;;;11.45;8.13;;;;;;;18.02;57.54;101077.41;5014770;28;20077;-84
2021/05/30 08:30:37;;;;;;;11.40;7.88;;;;;;;18.13;56.23;101081.22;5013949;28;20411;-84
2021/05/30 08:33:04;;;;;;;15.77;8.27;;;;;;;18.21;56.48;101070.88;4996386;28;20062;-84
2021/05/30 08:35:31;;;;;;;8.48;7.00;;;;;;;18.30;56.33;101070.25;4995068;28;20609;-85
2021/05/30 08:37:58;;;;;;;11.80;7.65;;;;;;;18.36;55.82;101069.81;4993132;28;20108;-85
2021/05/30 08:40:25;;;;;;;14.02;7.60;;;;;;;18.46;55.39;101069.16;4995097;28;20050;-85
2021/05/30 08:42:52;;;;;;;9.63;7.95;;;;;;;18.54;55.75;101071.31;4994583;28;20050;-84
2021/05/30 08:45:19;;;;;;;12.40;7.80;;;;;;;18.61;55.91;101068.09;4994634;28;20054;-85
2021/05/30 08:47:45;;;;;;;10.90;7.30;;;;;;;18.68;55.41;101060.53;4995882;28;20255;-85
2021/05/30 08:50:13;;;;;;;9.63;7.07;;;;;;;18.78;54.19;101070.53;4994445;28;20128;-84
2021/05/30 08:52:41;;;;;;;10.82;6.63;;;;;;;18.85;54.37;101064.69;4993386;28;20050;-86
2021/05/30 08:55:09;;;;;;;9.57;7.13;;;;;;;18.91;54.30;101062.53;4994653;28;20050;-85
2021/05/30 08:57:36;;;;;;;7.95;6.95;;;;;;;18.99;54.28;101070.84;4995148;28;20109;-86
2021/05/30 09:00:05;;;;;;;9.43;6.82;;;;;;;19.08;53.92;101061.34;4993947;28;20050;-84
2021/05/30 09:02:31;;;;;;;9.75;7.00;;;;;;;19.15;53.85;101054.59;4994076;28;20058;-87
2021/05/30 09:05:06;;;;;;;7.22;6.05;;;;;;;19.21;53.30;101064.81;4993659;28;20415;-85
2021/05/30 09:07:36;;;;;;;7.63;5.97;;;;;;;19.29;53.44;101058.94;4994567;28;20458;-86
2021/05/30 09:10:09;;;;;;;8.40;6.18;;;;;;;19.36;52.03;101060.19;4994843;28;20094;-85
2021/05/30 09:13:14;;;;;;;8.30;5.78;;;;;;;19.43;52.69;101065.09;4992943;28;20046;-86
2021/05/30 09:18:32;;;;;;;9.20;6.40;;;;;;;19.62;52.24;101052.06;4994253;28;20137;-84
2021/05/30 09:21:13;;;;;;;7.57;6.00;;;;;;;19.67;51.21;101049.03;5002314;28;20057;-85
2021/05/30 09:23:47;;;;;;;8.32;5.97;;;;;;;19.78;52.61;101059.75;5013243;28;20057;-85
2021/05/30 09:26:17;;;;;;;9.55;6.35;;;;;;;19.87;52.56;101055.53;5012430;28;20053;-85
2021/05/30 09:29:09;;;;;;;13.38;6.60;;;;;;;19.91;52.66;101051.69;5012185;28;20100;-85
2021/05/30 09:31:56;;;;;;;9.20;6.32;;;;;;;20.01;52.26;101045.66;5014027;28;20054;-85
2021/05/30 09:34:37;;;;;;;14.77;6.28;;;;;;;20.10;52.92;101044.09;5013119;28;20084;-85
2021/05/30 09:37:06;;;;;;;7.30;6.15;;;;;;;20.21;52.84;101044.13;5011551;28;20057;-83
2021/05/30 09:39:32;;;;;;;7.15;6.45;;;;;;;20.30;52.84;101039.88;5014150;28;20057;-86
2021/05/30 09:42:21;;;;;;;7.75;6.47;;;;;;;20.35;51.92;101040.38;5013002;28;20060;-85
2021/05/30 09:45:02;;;;;;;7.68;5.80;;;;;;;20.48;52.05;101044.75;5013564;28;20049;-84
2021/05/30 09:47:35;;;;;;;7.15;5.30;;;;;;;20.57;51.51;101042.19;5013988;28;20050;-85
2021/05/30 09:50:05;;;;;;;7.75;5.53;;;;;;;20.68;52.59;101038.66;5013176;28;20868;-85
2021/05/30 09:52:41;;;;;;;8.48;6.13;;;;;;;20.77;51.57;101038.91;5013581;28;20065;-84
2021/05/30 09:55:23;;;;;;;6.47;5.68;;;;;;;20.87;51.19;101039.91;5009578;28;20050;-84
2021/05/30 09:58:15;;;;;;;10.35;6.72;;;;;;;20.96;51.56;101039.16;5012788;28;20108;-84
2021/05/30 10:00:52;;;;;;;6.65;5.93;;;;;;;21.07;51.53;101038.31;5014350;28;20064;-84
2021/05/30 10:03:19;;;;;;;9.95;6.28;;;;;;;21.17;51.31;101046.44;5013198;28;20057;-85
2021/05/30 10:05:45;;;;;;;6.53;5.13;;;;;;;21.24;51.47;101044.09;5012659;28;20057;-84
2021/05/30 10:08:14;;;;;;;8.13;5.47;;;;;;;21.32;51.47;101040.78;5013860;28;20050;-85
2021/05/30 10:10:41;;;;;;;8.18;5.68;;;;;;;21.39;50.21;101044.69;5011551;28;20480;-85
2021/05/30 10:13:08;;;;;;;7.18;5.47;;;;;;;21.47;49.92;101044.03;5014500;28;20061;-84
2021/05/30 10:15:34;;;;;;;6.03;5.43;;;;;;;21.54;50.40;101034.50;5013721;28;20057;-85
2021/05/30 10:18:08;;;;;;;7.47;5.72;;;;;;;21.63;50.59;101037.41;5013837;28;20108;-83
2021/05/30 10:20:38;;;;;;;7.30;5.45;;;;;;;21.71;49.67;101037.59;5014513;28;20104;-85
2021/05/30 10:23:06;;;;;;;7.25;4.97;;;;;;;21.81;49.63;101040.38;5013943;28;20108;-83
2021/05/30 10:25:35;;;;;;;6.88;4.95;;;;;;;21.88;48.70;101038.88;5014174;28;20054;-85
2021/05/30 10:28:12;;;;;;;5.65;4.32;;;;;;;21.95;49.51;101034.72;5012056;28;20057;-85
2021/05/30 10:30:50;;;;;;;4.88;4.38;;;;;;;22.06;48.91;101044.53;5013637;28;20050;-85
2021/05/30 10:33:24;;;;;;;5.88;4.35;;;;;;;22.21;48.04;101045.00;5013639;28;20418;-85
2021/05/30 10:35:54;;;;;;;6.85;4.40;;;;;;;22.33;47.82;101036.88;5013700;28;20521;-85
2021/05/30 10:38:39;;;;;;;8.23;5.63;;;;;;;22.43;47.03;101029.72;5013774;28;20058;-85
2021/05/30 10:41:17;;;;;;;5.75;4.82;;;;;;;22.64;48.78;101034.22;5014053;28;20049;-84
2021/05/30 10:43:45;;;;;;;7.03;5.43;;;;;;;22.91;49.87;101035.44;5011579;28;20046;-84
2021/05/30 10:46:18;;;;;;;5.40;4.55;;;;;;;23.24;50.12;101029.84;5014206;28;20054;-83
2021/05/30 10:49:08;;;;;;;6.35;4.28;;;;;;;23.69;47.20;101031.16;5014345;28;20104;-85
2021/05/30 10:51:45;;;;;;;5.00;4.50;;;;;;;24.23;49.25;101033.38;5009270;28;20058;-84
2021/05/30 10:54:13;;;;;;;4.53;3.58;;;;;;;24.79;48.54;101036.13;5013753;28;20065;-86
2021/05/30 10:56:46;;;;;;;5.90;4.57;;;;;;;25.34;45.65;101031.69;5014412;28;20069;-84
2021/05/30 10:59:15;;;;;;;4.93;4.43;;;;;;;25.91;46.79;101035.06;5014051;28;20054;-85
2021/05/30 11:01:44;;;;;;;6.35;4.95;;;;;;;26.43;45.07;101040.63;5012572;28;20092;-83
2021/05/30 11:04:23;;;;;;;5.93;4.07;;;;;;;26.92;43.66;101040.81;5013798;28;20045;-84
2021/05/30 11:06:50;;;;;;;4.65;3.47;;;;;;;27.44;42.71;101032.69;5013231;28;20084;-84
2021/05/30 11:09:17;;;;;;;5.68;4.20;;;;;;;27.88;42.93;101028.78;5012663;28;20058;-85
2021/05/30 11:11:44;;;;;;;4.28;3.78;;;;;;;28.30;42.24;101028.75;4997153;28;20054;-84
2021/05/30 11:14:14;;;;;;;4.07;3.30;;;;;;;28.70;41.55;101028.75;4997225;28;20077;-85
2021/05/30 11:16:46;;;;;;;5.03;3.60;;;;;;;29.07;39.70;101020.94;4997154;28;20086;-86
2021/05/30 11:19:18;;;;;;;4.95;4.32;;;;;;;29.40;38.95;101015.28;4996647;28;20526;-85
2021/05/30 11:21:47;;;;;;;4.38;3.97;;;;;;;29.70;39.04;101018.13;4998703;28;20100;-85
2021/05/30 11:24:16;;;;;;;4.68;3.88;;;;;;;29.95;38.82;101019.75;4996907;28;20054;-86
2021/05/30 11:27:04;;;;;;;3.88;3.22;;;;;;;30.15;39.36;101017.34;5004028;28;20057;-85